sensor_id;sensor_type;location;lat;lon;timestamp;P1;durP1;ratioP1;P2;durP2;ratioP2
66521;SDS011;53349;53.538;8.584;2023-04-03T00:02:17;2.50;;;0.90;;
66521;SDS011;53349;53.538;8.584;2023-04-03T00:04:42;4.53;;;1.10;;
66521;SDS011;53349;53.538;8.584;2023-04-03T00:07:09;5.60;;;0.80;;
66521;SDS011;53349;53.538;8.584;2023-04-03T00:09:38;3.10;;;0.88;;
66521;SDS011;53349;53.538;8.584;2023-04-03T00:12:04;3.83;;;1.00;;
66521;SDS011;53349;53.538;8.584;2023-04-03T00:14:29;4.57;;;1.00;;
66521;SDS011;53349;53.538;8.584;2023-04-03T00:16:54;3.20;;;1.07;;
66521;SDS011;53349;53.538;8.584;2023-04-03T00:19:20;4.93;;;1.10;;
66521;SDS011;53349;53.538;8.584;2023-04-03T00:21:45;5.43;;;1.45;;
66521;SDS011;53349;53.538;8.584;2023-04-03T00:24:10;8.95;;;1.25;;
66521;SDS011;53349;53.538;8.584;2023-04-03T00:26:36;5.80;;;1.00;;
66521;SDS011;53349;53.538;8.584;2023-04-03T00:29:03;5.70;;;1.40;;
66521;SDS011;53349;53.538;8.584;2023-04-03T00:31:28;6.93;;;1.48;;
66521;SDS011;53349;53.538;8.584;2023-04-03T00:33:54;4.53;;;1.00;;
66521;SDS011;53349;53.538;8.584;2023-04-03T00:36:19;5.20;;;1.53;;
66521;SDS011;53349;53.538;8.584;2023-04-03T00:38:44;5.50;;;1.57;;
66521;SDS011;53349;53.538;8.584;2023-04-03T00:41:10;3.87;;;0.97;;
66521;SDS011;53349;53.538;8.584;2023-04-03T00:43:35;3.67;;;1.20;;
66521;SDS011;53349;53.538;8.584;2023-04-03T00:46:00;3.50;;;1.05;;
66521;SDS011;53349;53.538;8.584;2023-04-03T00:48:31;4.03;;;1.00;;
66521;SDS011;53349;53.538;8.584;2023-04-03T00:50:58;5.78;;;1.00;;
66521;SDS011;53349;53.538;8.584;2023-04-03T00:53:26;3.53;;;1.08;;
66521;SDS011;53349;53.538;8.584;2023-04-03T00:55:55;7.93;;;1.15;;
66521;SDS011;53349;53.538;8.584;2023-04-03T00:58:21;4.00;;;1.07;;
66521;SDS011;53349;53.538;8.584;2023-04-03T01:00:53;5.85;;;1.05;;
66521;SDS011;53349;53.538;8.584;2023-04-03T01:03:21;5.72;;;1.40;;
66521;SDS011;53349;53.538;8.584;2023-04-03T01:05:48;3.45;;;1.00;;
66521;SDS011;53349;53.538;8.584;2023-04-03T01:08:15;3.20;;;1.20;;
66521;SDS011;53349;53.538;8.584;2023-04-03T01:10:45;4.47;;;1.20;;
66521;SDS011;53349;53.538;8.584;2023-04-03T01:13:27;4.57;;;1.10;;
66521;SDS011;53349;53.538;8.584;2023-04-03T01:16:00;4.45;;;1.05;;
66521;SDS011;53349;53.538;8.584;2023-04-03T01:18:28;5.25;;;1.33;;
66521;SDS011;53349;53.538;8.584;2023-04-03T01:23:32;7.57;;;1.40;;
66521;SDS011;53349;53.538;8.584;2023-04-03T01:26:05;4.07;;;1.27;;
66521;SDS011;53349;53.538;8.584;2023-04-03T01:28:32;5.32;;;1.58;;
66521;SDS011;53349;53.538;8.584;2023-04-03T01:31:08;5.77;;;1.23;;
66521;SDS011;53349;53.538;8.584;2023-04-03T01:33:48;6.35;;;1.30;;
66521;SDS011;53349;53.538;8.584;2023-04-03T01:36:17;4.47;;;1.42;;
66521;SDS011;53349;53.538;8.584;2023-04-03T01:38:45;4.82;;;1.23;;
66521;SDS011;53349;53.538;8.584;2023-04-03T01:41:10;3.27;;;1.00;;
66521;SDS011;53349;53.538;8.584;2023-04-03T01:43:35;4.20;;;1.33;;
66521;SDS011;53349;53.538;8.584;2023-04-03T01:46:01;6.27;;;1.50;;
66521;SDS011;53349;53.538;8.584;2023-04-03T01:48:27;3.75;;;1.48;;
66521;SDS011;53349;53.538;8.584;2023-04-03T01:50:54;3.73;;;1.20;;
66521;SDS011;53349;53.538;8.584;2023-04-03T01:53:19;5.97;;;1.50;;
66521;SDS011;53349;53.538;8.584;2023-04-03T01:55:51;6.23;;;1.23;;
66521;SDS011;53349;53.538;8.584;2023-04-03T01:58:16;7.45;;;1.27;;
66521;SDS011;53349;53.538;8.584;2023-04-03T02:00:43;6.20;;;1.57;;
66521;SDS011;53349;53.538;8.584;2023-04-03T02:03:08;6.38;;;1.38;;
66521;SDS011;53349;53.538;8.584;2023-04-03T02:05:37;3.80;;;1.20;;
66521;SDS011;53349;53.538;8.584;2023-04-03T02:08:05;4.53;;;1.25;;
66521;SDS011;53349;53.538;8.584;2023-04-03T02:10:31;4.20;;;0.90;;
66521;SDS011;53349;53.538;8.584;2023-04-03T02:12:56;4.67;;;1.37;;
66521;SDS011;53349;53.538;8.584;2023-04-03T02:15:21;5.53;;;1.57;;
66521;SDS011;53349;53.538;8.584;2023-04-03T02:17:47;4.10;;;1.17;;
66521;SDS011;53349;53.538;8.584;2023-04-03T02:20:13;3.85;;;1.13;;
66521;SDS011;53349;53.538;8.584;2023-04-03T02:22:39;5.47;;;1.45;;
66521;SDS011;53349;53.538;8.584;2023-04-03T02:25:06;4.85;;;1.42;;
66521;SDS011;53349;53.538;8.584;2023-04-03T02:27:31;6.33;;;1.30;;
66521;SDS011;53349;53.538;8.584;2023-04-03T02:29:57;8.03;;;1.77;;
66521;SDS011;53349;53.538;8.584;2023-04-03T02:32:22;5.07;;;1.40;;
66521;SDS011;53349;53.538;8.584;2023-04-03T02:34:47;5.30;;;1.20;;
66521;SDS011;53349;53.538;8.584;2023-04-03T02:37:13;3.40;;;1.10;;
66521;SDS011;53349;53.538;8.584;2023-04-03T02:39:38;5.17;;;1.50;;
66521;SDS011;53349;53.538;8.584;2023-04-03T02:42:08;6.57;;;1.80;;
66521;SDS011;53349;53.538;8.584;2023-04-03T02:44:33;11.73;;;1.60;;
66521;SDS011;53349;53.538;8.584;2023-04-03T02:46:58;6.53;;;1.45;;
66521;SDS011;53349;53.538;8.584;2023-04-03T02:49:24;5.45;;;1.17;;
66521;SDS011;53349;53.538;8.584;2023-04-03T02:51:49;6.32;;;1.42;;
66521;SDS011;53349;53.538;8.584;2023-04-03T02:54:15;5.60;;;1.53;;
66521;SDS011;53349;53.538;8.584;2023-04-03T02:56:40;5.23;;;1.53;;
66521;SDS011;53349;53.538;8.584;2023-04-03T02:59:05;7.27;;;1.90;;
66521;SDS011;53349;53.538;8.584;2023-04-03T03:01:30;6.03;;;1.50;;
66521;SDS011;53349;53.538;8.584;2023-04-03T03:03:56;4.87;;;1.40;;
66521;SDS011;53349;53.538;8.584;2023-04-03T03:06:21;6.03;;;1.70;;
66521;SDS011;53349;53.538;8.584;2023-04-03T03:08:47;4.63;;;1.50;;
66521;SDS011;53349;53.538;8.584;2023-04-03T03:11:13;4.30;;;1.77;;
66521;SDS011;53349;53.538;8.584;2023-04-03T03:13:39;4.00;;;1.85;;
66521;SDS011;53349;53.538;8.584;2023-04-03T03:16:05;6.63;;;1.40;;
66521;SDS011;53349;53.538;8.584;2023-04-03T03:18:33;5.70;;;1.30;;
66521;SDS011;53349;53.538;8.584;2023-04-03T03:21:00;7.43;;;2.00;;
66521;SDS011;53349;53.538;8.584;2023-04-03T03:23:28;6.18;;;1.88;;
66521;SDS011;53349;53.538;8.584;2023-04-03T03:25:56;4.35;;;1.52;;
66521;SDS011;53349;53.538;8.584;2023-04-03T03:28:23;5.75;;;1.55;;
66521;SDS011;53349;53.538;8.584;2023-04-03T03:30:49;5.88;;;1.27;;
66521;SDS011;53349;53.538;8.584;2023-04-03T03:33:15;4.23;;;1.40;;
66521;SDS011;53349;53.538;8.584;2023-04-03T03:35:41;6.18;;;1.30;;
66521;SDS011;53349;53.538;8.584;2023-04-03T03:38:06;6.40;;;1.30;;
66521;SDS011;53349;53.538;8.584;2023-04-03T03:40:32;7.13;;;2.07;;
66521;SDS011;53349;53.538;8.584;2023-04-03T03:42:58;7.10;;;1.77;;
66521;SDS011;53349;53.538;8.584;2023-04-03T03:45:23;7.57;;;1.90;;
66521;SDS011;53349;53.538;8.584;2023-04-03T03:47:49;6.73;;;1.70;;
66521;SDS011;53349;53.538;8.584;2023-04-03T03:50:15;6.13;;;1.70;;
66521;SDS011;53349;53.538;8.584;2023-04-03T03:52:43;7.72;;;1.55;;
66521;SDS011;53349;53.538;8.584;2023-04-03T03:55:10;6.35;;;1.50;;
66521;SDS011;53349;53.538;8.584;2023-04-03T03:57:36;6.07;;;1.27;;
66521;SDS011;53349;53.538;8.584;2023-04-03T04:00:01;6.37;;;1.67;;
66521;SDS011;53349;53.538;8.584;2023-04-03T04:02:26;4.13;;;1.37;;
66521;SDS011;53349;53.538;8.584;2023-04-03T04:04:52;4.97;;;1.23;;
66521;SDS011;53349;53.538;8.584;2023-04-03T04:07:17;5.83;;;1.17;;
66521;SDS011;53349;53.538;8.584;2023-04-03T04:09:42;5.82;;;1.35;;
66521;SDS011;53349;53.538;8.584;2023-04-03T04:12:08;5.28;;;1.20;;
66521;SDS011;53349;53.538;8.584;2023-04-03T04:14:33;8.10;;;1.70;;
66521;SDS011;53349;53.538;8.584;2023-04-03T04:16:59;6.90;;;1.33;;
66521;SDS011;53349;53.538;8.584;2023-04-03T04:19:24;7.07;;;1.80;;
66521;SDS011;53349;53.538;8.584;2023-04-03T04:21:49;5.97;;;1.90;;
66521;SDS011;53349;53.538;8.584;2023-04-03T04:24:14;4.37;;;1.67;;
66521;SDS011;53349;53.538;8.584;2023-04-03T04:26:41;4.90;;;1.50;;
66521;SDS011;53349;53.538;8.584;2023-04-03T04:29:08;5.63;;;1.40;;
66521;SDS011;53349;53.538;8.584;2023-04-03T04:31:34;5.82;;;1.25;;
66521;SDS011;53349;53.538;8.584;2023-04-03T04:33:59;5.77;;;1.20;;
66521;SDS011;53349;53.538;8.584;2023-04-03T04:36:24;8.00;;;1.90;;
66521;SDS011;53349;53.538;8.584;2023-04-03T04:38:50;8.97;;;1.50;;
66521;SDS011;53349;53.538;8.584;2023-04-03T04:41:15;5.65;;;1.60;;
66521;SDS011;53349;53.538;8.584;2023-04-03T04:43:40;6.70;;;1.80;;
66521;SDS011;53349;53.538;8.584;2023-04-03T04:46:08;8.37;;;1.70;;
66521;SDS011;53349;53.538;8.584;2023-04-03T04:48:34;8.63;;;1.55;;
66521;SDS011;53349;53.538;8.584;2023-04-03T04:51:01;6.82;;;1.42;;
66521;SDS011;53349;53.538;8.584;2023-04-03T04:53:30;5.75;;;1.67;;
66521;SDS011;53349;53.538;8.584;2023-04-03T04:55:55;7.03;;;1.80;;
66521;SDS011;53349;53.538;8.584;2023-04-03T04:58:22;8.93;;;1.90;;
66521;SDS011;53349;53.538;8.584;2023-04-03T05:00:57;6.45;;;1.50;;
66521;SDS011;53349;53.538;8.584;2023-04-03T05:03:25;5.38;;;1.50;;
66521;SDS011;53349;53.538;8.584;2023-04-03T05:05:50;5.00;;;1.50;;
66521;SDS011;53349;53.538;8.584;2023-04-03T05:08:18;7.47;;;1.77;;
66521;SDS011;53349;53.538;8.584;2023-04-03T05:10:46;7.18;;;1.70;;
66521;SDS011;53349;53.538;8.584;2023-04-03T05:13:11;5.57;;;1.80;;
66521;SDS011;53349;53.538;8.584;2023-04-03T05:15:37;5.93;;;1.67;;
66521;SDS011;53349;53.538;8.584;2023-04-03T05:18:02;4.97;;;2.03;;
66521;SDS011;53349;53.538;8.584;2023-04-03T05:20:28;7.20;;;2.10;;
66521;SDS011;53349;53.538;8.584;2023-04-03T05:22:56;7.47;;;2.00;;
66521;SDS011;53349;53.538;8.584;2023-04-03T05:25:25;7.28;;;1.88;;
66521;SDS011;53349;53.538;8.584;2023-04-03T05:27:50;4.30;;;1.50;;
66521;SDS011;53349;53.538;8.584;2023-04-03T05:30:17;5.57;;;1.73;;
66521;SDS011;53349;53.538;8.584;2023-04-03T05:32:45;7.15;;;2.00;;
66521;SDS011;53349;53.538;8.584;2023-04-03T05:35:12;6.70;;;1.50;;
66521;SDS011;53349;53.538;8.584;2023-04-03T05:37:38;5.50;;;1.50;;
66521;SDS011;53349;53.538;8.584;2023-04-03T05:40:04;6.00;;;1.95;;
66521;SDS011;53349;53.538;8.584;2023-04-03T05:42:30;6.60;;;1.50;;
66521;SDS011;53349;53.538;8.584;2023-04-03T05:44:57;6.63;;;1.73;;
66521;SDS011;53349;53.538;8.584;2023-04-03T05:47:23;6.78;;;1.65;;
66521;SDS011;53349;53.538;8.584;2023-04-03T05:49:50;6.07;;;1.73;;
66521;SDS011;53349;53.538;8.584;2023-04-03T05:52:28;4.85;;;1.58;;
66521;SDS011;53349;53.538;8.584;2023-04-03T05:54:56;6.40;;;1.77;;
66521;SDS011;53349;53.538;8.584;2023-04-03T05:57:21;9.90;;;2.30;;
66521;SDS011;53349;53.538;8.584;2023-04-03T05:59:47;6.93;;;1.83;;
66521;SDS011;53349;53.538;8.584;2023-04-03T06:02:15;5.68;;;1.95;;
66521;SDS011;53349;53.538;8.584;2023-04-03T06:04:42;8.67;;;2.00;;
66521;SDS011;53349;53.538;8.584;2023-04-03T06:07:11;6.68;;;2.03;;
66521;SDS011;53349;53.538;8.584;2023-04-03T06:09:39;6.93;;;1.90;;
66521;SDS011;53349;53.538;8.584;2023-04-03T06:12:04;6.73;;;2.00;;
66521;SDS011;53349;53.538;8.584;2023-04-03T06:14:29;7.30;;;2.30;;
66521;SDS011;53349;53.538;8.584;2023-04-03T06:16:55;9.67;;;2.10;;
66521;SDS011;53349;53.538;8.584;2023-04-03T06:19:20;5.77;;;1.90;;
66521;SDS011;53349;53.538;8.584;2023-04-03T06:21:46;4.40;;;1.80;;
66521;SDS011;53349;53.538;8.584;2023-04-03T06:24:15;6.43;;;1.98;;
66521;SDS011;53349;53.538;8.584;2023-04-03T06:26:42;4.80;;;1.70;;
66521;SDS011;53349;53.538;8.584;2023-04-03T06:29:07;7.25;;;1.70;;
66521;SDS011;53349;53.538;8.584;2023-04-03T06:31:34;5.90;;;1.85;;
66521;SDS011;53349;53.538;8.584;2023-04-03T06:34:02;6.45;;;1.90;;
66521;SDS011;53349;53.538;8.584;2023-04-03T06:36:28;5.75;;;1.75;;
66521;SDS011;53349;53.538;8.584;2023-04-03T06:38:54;8.80;;;2.53;;
66521;SDS011;53349;53.538;8.584;2023-04-03T06:41:20;7.07;;;1.90;;
66521;SDS011;53349;53.538;8.584;2023-04-03T06:43:47;5.57;;;1.90;;
66521;SDS011;53349;53.538;8.584;2023-04-03T06:46:16;6.22;;;1.60;;
66521;SDS011;53349;53.538;8.584;2023-04-03T06:48:42;7.78;;;1.88;;
66521;SDS011;53349;53.538;8.584;2023-04-03T06:51:14;6.60;;;1.65;;
66521;SDS011;53349;53.538;8.584;2023-04-03T06:53:57;4.07;;;1.40;;
66521;SDS011;53349;53.538;8.584;2023-04-03T06:56:24;6.15;;;1.70;;
66521;SDS011;53349;53.538;8.584;2023-04-03T06:58:51;5.32;;;1.40;;
66521;SDS011;53349;53.538;8.584;2023-04-03T07:01:18;5.88;;;1.52;;
66521;SDS011;53349;53.538;8.584;2023-04-03T07:03:46;6.32;;;1.70;;
66521;SDS011;53349;53.538;8.584;2023-04-03T07:06:12;4.82;;;1.30;;
66521;SDS011;53349;53.538;8.584;2023-04-03T07:08:41;3.77;;;1.30;;
66521;SDS011;53349;53.538;8.584;2023-04-03T07:11:06;5.15;;;1.20;;
66521;SDS011;53349;53.538;8.584;2023-04-03T07:13:32;4.00;;;1.63;;
66521;SDS011;53349;53.538;8.584;2023-04-03T07:15:57;5.30;;;1.45;;
66521;SDS011;53349;53.538;8.584;2023-04-03T07:18:25;5.63;;;1.20;;
66521;SDS011;53349;53.538;8.584;2023-04-03T07:20:51;5.15;;;1.70;;
66521;SDS011;53349;53.538;8.584;2023-04-03T07:23:16;4.93;;;1.30;;
66521;SDS011;53349;53.538;8.584;2023-04-03T07:25:43;5.70;;;1.55;;
66521;SDS011;53349;53.538;8.584;2023-04-03T07:28:13;6.70;;;1.45;;
66521;SDS011;53349;53.538;8.584;2023-04-03T07:30:43;6.23;;;1.67;;
66521;SDS011;53349;53.538;8.584;2023-04-03T07:33:12;3.42;;;1.10;;
66521;SDS011;53349;53.538;8.584;2023-04-03T07:35:45;5.38;;;1.58;;
66521;SDS011;53349;53.538;8.584;2023-04-03T07:38:12;6.90;;;1.33;;
66521;SDS011;53349;53.538;8.584;2023-04-03T07:40:39;7.43;;;1.52;;
66521;SDS011;53349;53.538;8.584;2023-04-03T07:43:04;7.67;;;1.70;;
66521;SDS011;53349;53.538;8.584;2023-04-03T07:45:33;4.07;;;1.20;;
66521;SDS011;53349;53.538;8.584;2023-04-03T07:48:00;4.25;;;1.50;;
66521;SDS011;53349;53.538;8.584;2023-04-03T07:50:25;5.90;;;1.13;;
66521;SDS011;53349;53.538;8.584;2023-04-03T07:52:51;5.47;;;1.07;;
66521;SDS011;53349;53.538;8.584;2023-04-03T07:55:16;5.17;;;1.60;;
66521;SDS011;53349;53.538;8.584;2023-04-03T07:57:41;5.90;;;1.20;;
66521;SDS011;53349;53.538;8.584;2023-04-03T08:00:07;6.13;;;1.47;;
66521;SDS011;53349;53.538;8.584;2023-04-03T08:02:33;4.57;;;1.17;;
66521;SDS011;53349;53.538;8.584;2023-04-03T08:05:00;5.28;;;1.10;;
66521;SDS011;53349;53.538;8.584;2023-04-03T08:07:25;4.67;;;1.00;;
66521;SDS011;53349;53.538;8.584;2023-04-03T08:09:52;5.20;;;1.15;;
66521;SDS011;53349;53.538;8.584;2023-04-03T08:12:17;5.10;;;1.10;;
66521;SDS011;53349;53.538;8.584;2023-04-03T08:14:43;4.30;;;1.10;;
66521;SDS011;53349;53.538;8.584;2023-04-03T08:17:08;4.60;;;0.90;;
66521;SDS011;53349;53.538;8.584;2023-04-03T08:19:34;5.32;;;1.05;;
66521;SDS011;53349;53.538;8.584;2023-04-03T08:22:02;5.47;;;0.90;;
66521;SDS011;53349;53.538;8.584;2023-04-03T08:24:29;3.90;;;1.10;;
66521;SDS011;53349;53.538;8.584;2023-04-03T08:26:54;4.32;;;1.02;;
66521;SDS011;53349;53.538;8.584;2023-04-03T08:29:20;3.40;;;0.68;;
66521;SDS011;53349;53.538;8.584;2023-04-03T08:31:46;2.88;;;0.60;;
66521;SDS011;53349;53.538;8.584;2023-04-03T08:34:11;3.10;;;0.60;;
66521;SDS011;53349;53.538;8.584;2023-04-03T08:36:37;3.27;;;0.67;;
66521;SDS011;53349;53.538;8.584;2023-04-03T08:39:02;3.13;;;0.80;;
66521;SDS011;53349;53.538;8.584;2023-04-03T08:41:31;4.70;;;0.80;;
66521;SDS011;53349;53.538;8.584;2023-04-03T08:44:14;3.80;;;0.57;;
66521;SDS011;53349;53.538;8.584;2023-04-03T08:49:54;2.67;;;0.60;;
66521;SDS011;53349;53.538;8.584;2023-04-03T08:52:38;3.13;;;0.70;;
66521;SDS011;53349;53.538;8.584;2023-04-03T08:58:00;3.67;;;0.60;;
66521;SDS011;53349;53.538;8.584;2023-04-03T09:00:28;3.67;;;0.90;;
66521;SDS011;53349;53.538;8.584;2023-04-03T09:02:57;4.00;;;0.60;;
66521;SDS011;53349;53.538;8.584;2023-04-03T09:05:42;4.30;;;0.88;;
66521;SDS011;53349;53.538;8.584;2023-04-03T09:08:14;2.20;;;0.60;;
66521;SDS011;53349;53.538;8.584;2023-04-03T09:10:46;4.75;;;0.70;;
66521;SDS011;53349;53.538;8.584;2023-04-03T09:16:10;3.72;;;1.10;;
66521;SDS011;53349;53.538;8.584;2023-04-03T09:18:45;4.47;;;1.00;;
66521;SDS011;53349;53.538;8.584;2023-04-03T09:21:20;4.13;;;1.10;;
66521;SDS011;53349;53.538;8.584;2023-04-03T09:23:50;2.95;;;0.80;;
66521;SDS011;53349;53.538;8.584;2023-04-03T09:26:19;3.38;;;0.90;;
66521;SDS011;53349;53.538;8.584;2023-04-03T09:28:50;4.18;;;0.70;;
66521;SDS011;53349;53.538;8.584;2023-04-03T09:31:22;2.30;;;0.70;;
66521;SDS011;53349;53.538;8.584;2023-04-03T09:33:53;2.53;;;0.50;;
66521;SDS011;53349;53.538;8.584;2023-04-03T09:36:46;3.00;;;0.50;;
66521;SDS011;53349;53.538;8.584;2023-04-03T09:39:21;3.28;;;0.47;;
66521;SDS011;53349;53.538;8.584;2023-04-03T09:42:18;3.45;;;0.43;;
66521;SDS011;53349;53.538;8.584;2023-04-03T09:44:53;2.42;;;0.50;;
66521;SDS011;53349;53.538;8.584;2023-04-03T09:47:25;2.47;;;0.57;;
66521;SDS011;53349;53.538;8.584;2023-04-03T09:50:18;3.28;;;0.77;;
66521;SDS011;53349;53.538;8.584;2023-04-03T09:52:51;2.95;;;0.70;;
66521;SDS011;53349;53.538;8.584;2023-04-03T09:55:23;2.42;;;0.73;;
66521;SDS011;53349;53.538;8.584;2023-04-03T09:57:59;2.78;;;0.80;;
66521;SDS011;53349;53.538;8.584;2023-04-03T10:00:39;3.80;;;1.10;;
66521;SDS011;53349;53.538;8.584;2023-04-03T10:03:22;3.15;;;0.75;;
66521;SDS011;53349;53.538;8.584;2023-04-03T10:05:58;3.55;;;0.90;;
66521;SDS011;53349;53.538;8.584;2023-04-03T10:08:25;3.60;;;0.70;;
66521;SDS011;53349;53.538;8.584;2023-04-03T10:11:07;3.20;;;0.80;;
66521;SDS011;53349;53.538;8.584;2023-04-03T10:13:49;4.47;;;1.20;;
66521;SDS011;53349;53.538;8.584;2023-04-03T10:16:16;2.95;;;0.75;;
66521;SDS011;53349;53.538;8.584;2023-04-03T10:18:47;3.65;;;0.93;;
66521;SDS011;53349;53.538;8.584;2023-04-03T10:27:17;4.03;;;1.13;;
66521;SDS011;53349;53.538;8.584;2023-04-03T10:29:52;5.22;;;1.17;;
66521;SDS011;53349;53.538;8.584;2023-04-03T10:43:44;4.50;;;0.90;;
66521;SDS011;53349;53.538;8.584;2023-04-03T10:46:16;2.30;;;0.75;;
66521;SDS011;53349;53.538;8.584;2023-04-03T10:51:48;2.85;;;0.60;;
66521;SDS011;53349;53.538;8.584;2023-04-03T10:54:36;2.80;;;0.70;;
66521;SDS011;53349;53.538;8.584;2023-04-03T10:57:05;2.70;;;0.70;;
66521;SDS011;53349;53.538;8.584;2023-04-03T10:59:35;4.50;;;1.10;;
66521;SDS011;53349;53.538;8.584;2023-04-03T11:04:44;2.55;;;0.70;;
66521;SDS011;53349;53.538;8.584;2023-04-03T11:07:21;2.45;;;0.50;;
66521;SDS011;53349;53.538;8.584;2023-04-03T11:09:52;3.60;;;0.80;;
66521;SDS011;53349;53.538;8.584;2023-04-03T11:12:27;3.10;;;0.80;;
66521;SDS011;53349;53.538;8.584;2023-04-03T11:14:59;2.42;;;0.50;;
66521;SDS011;53349;53.538;8.584;2023-04-03T11:17:30;1.95;;;0.50;;
66521;SDS011;53349;53.538;8.584;2023-04-03T11:22:57;3.17;;;0.60;;
66521;SDS011;53349;53.538;8.584;2023-04-03T11:25:42;3.13;;;0.63;;
66521;SDS011;53349;53.538;8.584;2023-04-03T11:28:13;3.40;;;0.60;;
66521;SDS011;53349;53.538;8.584;2023-04-03T11:30:49;3.88;;;0.70;;
66521;SDS011;53349;53.538;8.584;2023-04-03T11:33:37;2.20;;;0.60;;
66521;SDS011;53349;53.538;8.584;2023-04-03T11:36:18;3.33;;;0.70;;
66521;SDS011;53349;53.538;8.584;2023-04-03T11:38:52;3.05;;;0.98;;
66521;SDS011;53349;53.538;8.584;2023-04-03T11:41:28;2.95;;;0.70;;
66521;SDS011;53349;53.538;8.584;2023-04-03T11:44:02;3.63;;;0.80;;
66521;SDS011;53349;53.538;8.584;2023-04-03T11:46:48;3.67;;;0.95;;
66521;SDS011;53349;53.538;8.584;2023-04-03T11:55:41;3.45;;;1.10;;
66521;SDS011;53349;53.538;8.584;2023-04-03T11:58:29;3.55;;;1.00;;
66521;SDS011;53349;53.538;8.584;2023-04-03T12:01:09;6.60;;;1.40;;
66521;SDS011;53349;53.538;8.584;2023-04-03T12:03:57;4.30;;;0.90;;
66521;SDS011;53349;53.538;8.584;2023-04-03T12:08:58;4.38;;;0.93;;
66521;SDS011;53349;53.538;8.584;2023-04-03T12:11:32;4.57;;;1.42;;
66521;SDS011;53349;53.538;8.584;2023-04-03T12:26:41;5.85;;;0.90;;
66521;SDS011;53349;53.538;8.584;2023-04-03T12:35:16;2.47;;;0.65;;
66521;SDS011;53349;53.538;8.584;2023-04-03T12:50:02;3.65;;;0.70;;
66521;SDS011;53349;53.538;8.584;2023-04-03T12:52:32;3.22;;;0.77;;
66521;SDS011;53349;53.538;8.584;2023-04-03T12:55:07;2.15;;;0.55;;
66521;SDS011;53349;53.538;8.584;2023-04-03T12:57:39;3.40;;;0.65;;
66521;SDS011;53349;53.538;8.584;2023-04-03T13:00:20;3.50;;;0.77;;
66521;SDS011;53349;53.538;8.584;2023-04-03T13:02:54;2.28;;;0.50;;
66521;SDS011;53349;53.538;8.584;2023-04-03T13:05:20;2.17;;;0.70;;
66521;SDS011;53349;53.538;8.584;2023-04-03T13:08:07;3.47;;;0.70;;
66521;SDS011;53349;53.538;8.584;2023-04-03T13:10:45;3.13;;;0.77;;
66521;SDS011;53349;53.538;8.584;2023-04-03T13:13:19;2.90;;;0.80;;
66521;SDS011;53349;53.538;8.584;2023-04-03T13:15:46;2.67;;;0.77;;
66521;SDS011;53349;53.538;8.584;2023-04-03T13:18:32;4.50;;;0.65;;
66521;SDS011;53349;53.538;8.584;2023-04-03T13:21:04;4.37;;;0.70;;
66521;SDS011;53349;53.538;8.584;2023-04-03T13:23:43;4.07;;;0.70;;
66521;SDS011;53349;53.538;8.584;2023-04-03T13:26:11;4.22;;;0.85;;
66521;SDS011;53349;53.538;8.584;2023-04-03T13:28:41;4.30;;;0.63;;
66521;SDS011;53349;53.538;8.584;2023-04-03T13:33:54;2.53;;;0.60;;
66521;SDS011;53349;53.538;8.584;2023-04-03T13:36:44;2.63;;;0.80;;
66521;SDS011;53349;53.538;8.584;2023-04-03T13:39:27;3.53;;;0.90;;
66521;SDS011;53349;53.538;8.584;2023-04-03T13:42:42;2.97;;;0.80;;
66521;SDS011;53349;53.538;8.584;2023-04-03T13:45:07;3.17;;;1.10;;
66521;SDS011;53349;53.538;8.584;2023-04-03T13:47:51;2.60;;;0.77;;
66521;SDS011;53349;53.538;8.584;2023-04-03T13:50:20;3.30;;;0.90;;
66521;SDS011;53349;53.538;8.584;2023-04-03T13:52:52;2.85;;;0.80;;
66521;SDS011;53349;53.538;8.584;2023-04-03T13:55:28;2.92;;;0.80;;
66521;SDS011;53349;53.538;8.584;2023-04-03T14:03:27;4.13;;;1.35;;
66521;SDS011;53349;53.538;8.584;2023-04-03T14:08:43;4.47;;;1.27;;
66521;SDS011;53349;53.538;8.584;2023-04-03T14:11:13;3.28;;;0.95;;
66521;SDS011;53349;53.538;8.584;2023-04-03T14:13:40;2.90;;;0.70;;
66521;SDS011;53349;53.538;8.584;2023-04-03T14:16:06;4.35;;;1.20;;
66521;SDS011;53349;53.538;8.584;2023-04-03T14:18:33;5.15;;;1.10;;
66521;SDS011;53349;53.538;8.584;2023-04-03T14:21:02;4.13;;;1.10;;
66521;SDS011;53349;53.538;8.584;2023-04-03T14:23:31;3.08;;;1.25;;
66521;SDS011;53349;53.538;8.584;2023-04-03T14:25:57;4.10;;;0.90;;
66521;SDS011;53349;53.538;8.584;2023-04-03T14:28:25;4.65;;;1.17;;
66521;SDS011;53349;53.538;8.584;2023-04-03T14:30:50;3.37;;;1.10;;
66521;SDS011;53349;53.538;8.584;2023-04-03T14:33:17;4.10;;;1.13;;
66521;SDS011;53349;53.538;8.584;2023-04-03T14:35:46;3.75;;;1.23;;
66521;SDS011;53349;53.538;8.584;2023-04-03T14:38:26;3.97;;;1.15;;
66521;SDS011;53349;53.538;8.584;2023-04-03T14:40:53;3.92;;;0.90;;
66521;SDS011;53349;53.538;8.584;2023-04-03T14:43:19;3.03;;;1.10;;
66521;SDS011;53349;53.538;8.584;2023-04-03T14:45:48;3.83;;;1.40;;
66521;SDS011;53349;53.538;8.584;2023-04-03T14:48:32;3.10;;;1.20;;
66521;SDS011;53349;53.538;8.584;2023-04-03T14:50:58;4.10;;;1.30;;
66521;SDS011;53349;53.538;8.584;2023-04-03T14:53:40;6.28;;;1.48;;
66521;SDS011;53349;53.538;8.584;2023-04-03T14:56:11;4.88;;;1.38;;
66521;SDS011;53349;53.538;8.584;2023-04-03T14:58:39;4.18;;;1.48;;
66521;SDS011;53349;53.538;8.584;2023-04-03T15:01:05;3.07;;;1.13;;
66521;SDS011;53349;53.538;8.584;2023-04-03T15:03:31;3.38;;;1.40;;
66521;SDS011;53349;53.538;8.584;2023-04-03T15:05:56;5.63;;;1.60;;
66521;SDS011;53349;53.538;8.584;2023-04-03T15:08:23;5.00;;;1.50;;
66521;SDS011;53349;53.538;8.584;2023-04-03T15:10:51;5.28;;;1.75;;
66521;SDS011;53349;53.538;8.584;2023-04-03T15:13:17;5.63;;;1.50;;
66521;SDS011;53349;53.538;8.584;2023-04-03T15:15:45;4.57;;;1.20;;
66521;SDS011;53349;53.538;8.584;2023-04-03T15:18:14;4.18;;;1.15;;
66521;SDS011;53349;53.538;8.584;2023-04-03T15:20:43;3.72;;;1.40;;
66521;SDS011;53349;53.538;8.584;2023-04-03T15:23:11;5.13;;;1.48;;
66521;SDS011;53349;53.538;8.584;2023-04-03T15:25:39;5.40;;;1.58;;
66521;SDS011;53349;53.538;8.584;2023-04-03T15:28:04;3.80;;;1.30;;
66521;SDS011;53349;53.538;8.584;2023-04-03T15:30:33;5.28;;;1.30;;
66521;SDS011;53349;53.538;8.584;2023-04-03T15:33:05;4.20;;;1.38;;
66521;SDS011;53349;53.538;8.584;2023-04-03T15:35:33;4.10;;;1.40;;
66521;SDS011;53349;53.538;8.584;2023-04-03T15:37:59;3.17;;;1.23;;
66521;SDS011;53349;53.538;8.584;2023-04-03T15:40:25;5.00;;;1.45;;
66521;SDS011;53349;53.538;8.584;2023-04-03T15:42:54;3.72;;;1.38;;
66521;SDS011;53349;53.538;8.584;2023-04-03T15:45:31;4.20;;;1.17;;
66521;SDS011;53349;53.538;8.584;2023-04-03T15:48:00;3.85;;;1.30;;
66521;SDS011;53349;53.538;8.584;2023-04-03T15:50:32;3.67;;;1.30;;
66521;SDS011;53349;53.538;8.584;2023-04-03T15:53:02;3.92;;;1.08;;
66521;SDS011;53349;53.538;8.584;2023-04-03T15:55:29;4.35;;;1.23;;
66521;SDS011;53349;53.538;8.584;2023-04-03T15:57:59;3.65;;;1.33;;
66521;SDS011;53349;53.538;8.584;2023-04-03T16:00:27;4.05;;;1.25;;
66521;SDS011;53349;53.538;8.584;2023-04-03T16:02:55;3.58;;;1.60;;
66521;SDS011;53349;53.538;8.584;2023-04-03T16:05:30;4.68;;;1.60;;
66521;SDS011;53349;53.538;8.584;2023-04-03T16:07:56;3.95;;;1.63;;
66521;SDS011;53349;53.538;8.584;2023-04-03T16:10:24;4.90;;;1.40;;
66521;SDS011;53349;53.538;8.584;2023-04-03T16:12:53;5.78;;;1.50;;
66521;SDS011;53349;53.538;8.584;2023-04-03T16:15:18;3.77;;;1.50;;
66521;SDS011;53349;53.538;8.584;2023-04-03T16:17:46;5.40;;;1.50;;
66521;SDS011;53349;53.538;8.584;2023-04-03T16:20:27;4.45;;;1.73;;
66521;SDS011;53349;53.538;8.584;2023-04-03T16:22:55;7.10;;;1.63;;
66521;SDS011;53349;53.538;8.584;2023-04-03T16:25:23;5.38;;;1.55;;
66521;SDS011;53349;53.538;8.584;2023-04-03T16:27:50;3.63;;;1.38;;
66521;SDS011;53349;53.538;8.584;2023-04-03T16:30:17;5.05;;;1.40;;